createdAt,value
2019-03-19T00:01:30.851Z,24.57
2019-03-19T00:03:58.618Z,17.27
2019-03-19T00:06:26.383Z,20.60
2019-03-19T00:08:54.174Z,12.17
2019-03-19T00:11:22.014Z,14.97
2019-03-19T00:13:49.768Z,16.23
2019-03-19T00:16:17.568Z,18.83
2019-03-19T00:18:45.338Z,14.57
2019-03-19T00:21:13.201Z,19.13
2019-03-19T00:23:40.956Z,13.93
2019-03-19T00:26:08.723Z,14.40
2019-03-19T00:28:38.913Z,14.77
2019-03-19T00:31:05.936Z,15.57
2019-03-19T00:33:33.750Z,16.70
2019-03-19T00:36:01.554Z,14.00
2019-03-19T00:38:29.316Z,14.50
2019-03-19T00:40:57.095Z,15.57
2019-03-19T00:43:24.828Z,14.10
2019-03-19T00:45:52.619Z,13.77
2019-03-19T00:48:20.337Z,14.53
2019-03-19T00:50:48.065Z,20.97
2019-03-19T00:53:15.894Z,17.43
2019-03-19T00:55:43.651Z,18.73
2019-03-19T00:58:11.424Z,15.43
2019-03-19T01:00:39.183Z,21.67
2019-03-19T01:03:06.976Z,18.20
2019-03-19T01:05:34.707Z,17.33
2019-03-19T01:08:02.500Z,20.80
2019-03-19T01:10:30.371Z,16.17
2019-03-19T01:12:58.128Z,16.80
2019-03-19T01:15:25.840Z,16.27
2019-03-19T01:17:53.540Z,14.77
2019-03-19T01:20:21.325Z,19.60
2019-03-19T01:22:49.023Z,15.03
2019-03-19T01:25:16.891Z,18.03
2019-03-19T01:27:44.751Z,16.17
2019-03-19T01:30:12.707Z,20.33
2019-03-19T01:32:40.428Z,16.97
2019-03-19T01:35:08.220Z,15.93
2019-03-19T01:37:35.965Z,23.30
2019-03-19T01:40:03.718Z,15.30
2019-03-19T01:42:31.540Z,16.07
2019-03-19T01:44:59.271Z,12.90
2019-03-19T01:47:27.220Z,19.27
2019-03-19T01:49:55.206Z,17.87
2019-03-19T01:52:23.006Z,18.43
2019-03-19T01:54:50.698Z,14.03
2019-03-19T01:57:18.432Z,16.60
2019-03-19T01:59:46.212Z,16.13
2019-03-19T02:02:13.934Z,13.27
2019-03-19T02:04:41.788Z,13.00
2019-03-19T02:07:09.598Z,17.40
2019-03-19T02:09:37.549Z,15.67
2019-03-19T02:12:05.350Z,13.53
2019-03-19T02:14:33.119Z,14.80
2019-03-19T02:17:00.852Z,16.03
2019-03-19T02:19:28.676Z,14.10
2019-03-19T02:21:56.634Z,14.33
2019-03-19T02:24:24.483Z,12.63
2019-03-19T02:26:52.278Z,17.60
2019-03-19T02:29:20.231Z,18.70
2019-03-19T02:31:47.979Z,14.00
2019-03-19T02:34:15.876Z,16.03
2019-03-19T02:36:43.608Z,16.63
2019-03-19T02:39:11.306Z,16.80
2019-03-19T02:41:39.065Z,12.20
2019-03-19T02:44:06.822Z,14.57
2019-03-19T02:46:34.595Z,12.90
2019-03-19T02:49:02.351Z,17.20
2019-03-19T02:51:30.048Z,13.43
2019-03-19T02:53:57.755Z,17.70
2019-03-19T02:56:32.778Z,14.23
2019-03-19T02:58:55.061Z,12.97
2019-03-19T03:01:22.806Z,15.87
2019-03-19T03:03:50.605Z,12.07
2019-03-19T03:06:18.474Z,11.50
2019-03-19T03:08:46.207Z,14.53
2019-03-19T03:11:13.923Z,13.80
2019-03-19T03:13:41.751Z,19.53
2019-03-19T03:16:09.489Z,13.90
2019-03-19T03:18:37.293Z,17.33
2019-03-19T03:21:05.081Z,12.37
2019-03-19T03:23:32.825Z,17.60
2019-03-19T03:26:00.522Z,14.00
2019-03-19T03:28:28.259Z,12.67
2019-03-19T03:30:56.017Z,14.37
2019-03-19T03:33:23.708Z,12.23
2019-03-19T03:35:51.543Z,14.00
2019-03-19T03:38:19.236Z,13.13
2019-03-19T03:40:47.091Z,12.10
2019-03-19T03:43:14.838Z,16.77
2019-03-19T03:45:42.544Z,13.77
2019-03-19T03:48:10.370Z,17.67
2019-03-19T03:50:38.267Z,10.67
2019-03-19T03:53:05.978Z,14.97
2019-03-19T03:55:33.791Z,11.50
2019-03-19T03:58:01.557Z,13.80
2019-03-19T04:00:29.274Z,14.30
2019-03-19T04:02:57.080Z,18.13
2019-03-19T04:05:24.963Z,13.63
2019-03-19T04:07:52.835Z,12.57
2019-03-19T04:10:20.803Z,14.73
2019-03-19T04:12:48.569Z,15.70
2019-03-19T04:15:16.339Z,16.43
2019-03-19T04:17:44.201Z,13.30
2019-03-19T04:20:11.975Z,16.73
2019-03-19T04:22:39.727Z,13.13
2019-03-19T04:25:07.470Z,14.53
2019-03-19T04:27:35.266Z,16.40
2019-03-19T04:30:03.079Z,13.23
2019-03-19T04:32:31.005Z,17.10
2019-03-19T04:34:58.746Z,12.03
2019-03-19T04:37:26.455Z,15.93
2019-03-19T04:39:54.291Z,17.10
2019-03-19T04:42:22.013Z,18.27
2019-03-19T04:44:49.863Z,16.57
2019-03-19T04:47:17.560Z,13.00
2019-03-19T04:49:45.350Z,18.57
2019-03-19T04:52:13.152Z,15.67
2019-03-19T04:54:40.991Z,13.57
2019-03-19T04:57:08.699Z,12.97
2019-03-19T04:59:36.643Z,12.60
2019-03-19T05:02:04.387Z,14.37
2019-03-19T05:04:32.171Z,18.40
2019-03-19T05:06:59.932Z,13.93
2019-03-19T05:09:27.693Z,16.87
2019-03-19T05:11:55.457Z,14.50
2019-03-19T05:14:23.304Z,13.83
2019-03-19T05:16:51.115Z,14.07
2019-03-19T05:19:18.838Z,16.50
2019-03-19T05:21:46.626Z,16.77
2019-03-19T05:24:14.512Z,16.43
2019-03-19T05:26:42.366Z,18.00
2019-03-19T05:29:10.107Z,16.27
2019-03-19T05:31:37.891Z,17.67
2019-03-19T05:34:05.598Z,16.60
2019-03-19T05:36:33.375Z,12.70
2019-03-19T05:39:01.103Z,19.00
2019-03-19T05:41:28.809Z,15.17
2019-03-19T05:43:56.624Z,19.90
2019-03-19T05:46:24.415Z,18.47
2019-03-19T05:48:52.263Z,14.53
2019-03-19T05:51:20.050Z,15.47
2019-03-19T05:53:47.821Z,17.33
2019-03-19T05:56:15.667Z,21.77
2019-03-19T05:58:46.420Z,16.60
2019-03-19T06:01:14.200Z,18.80
2019-03-19T06:03:42.257Z,17.53
2019-03-19T06:06:09.992Z,18.37
2019-03-19T06:08:37.771Z,17.53
2019-03-19T06:11:05.649Z,19.47
2019-03-19T06:13:33.394Z,15.87
2019-03-19T06:16:01.112Z,17.33
2019-03-19T06:18:35.026Z,17.80
2019-03-19T06:20:58.346Z,15.37
2019-03-19T06:23:27.761Z,16.73
2019-03-19T06:25:55.639Z,18.47
2019-03-19T06:28:23.714Z,15.13
2019-03-19T06:30:51.454Z,17.43
2019-03-19T06:33:21.988Z,15.90
2019-03-19T06:35:49.751Z,13.93
2019-03-19T06:38:17.477Z,16.07
2019-03-19T06:40:45.197Z,30.70
2019-03-19T06:43:13.491Z,17.70
2019-03-19T06:45:41.201Z,19.83
2019-03-19T06:48:09.197Z,17.60
2019-03-19T06:50:45.133Z,19.17
2019-03-19T06:53:06.697Z,14.27
2019-03-19T06:55:34.417Z,15.37
2019-03-19T06:58:10.481Z,17.63
2019-03-19T07:00:31.719Z,13.10
2019-03-19T07:02:59.506Z,15.73
2019-03-19T07:05:27.405Z,16.30
2019-03-19T07:07:55.340Z,15.53
2019-03-19T07:10:23.090Z,16.03
2019-03-19T07:12:50.803Z,14.57
2019-03-19T07:15:18.521Z,14.70
2019-03-19T07:17:46.319Z,17.13
2019-03-19T07:20:14.029Z,15.33
2019-03-19T07:22:41.822Z,13.03
2019-03-19T07:25:09.555Z,15.20
2019-03-19T07:27:37.360Z,15.03
2019-03-19T07:30:05.340Z,18.27
2019-03-19T07:32:33.097Z,14.50
2019-03-19T07:37:48.890Z,15.97
2019-03-19T07:40:16.682Z,19.80
2019-03-19T07:42:44.406Z,13.43
2019-03-19T07:45:12.213Z,15.67
2019-03-19T07:47:39.956Z,14.10
2019-03-19T07:50:07.746Z,14.70
2019-03-19T07:52:35.500Z,14.17
2019-03-19T07:55:03.288Z,15.43
2019-03-19T07:57:31.034Z,13.03
2019-03-19T07:59:58.795Z,17.77
2019-03-19T08:02:26.545Z,14.83
2019-03-19T08:04:54.324Z,17.63
2019-03-19T08:07:22.105Z,15.00
2019-03-19T08:09:49.860Z,15.87
2019-03-19T08:12:17.645Z,12.63
2019-03-19T08:14:45.389Z,17.30
2019-03-19T08:17:13.282Z,10.93
2019-03-19T08:19:41.043Z,17.47
2019-03-19T08:22:11.875Z,17.17
2019-03-19T08:24:39.587Z,13.87
2019-03-19T08:27:07.406Z,12.00
2019-03-19T08:29:35.174Z,13.67
2019-03-19T08:32:02.936Z,22.17
2019-03-19T08:34:30.769Z,11.17
2019-03-19T08:39:59.151Z,14.33
2019-03-19T08:42:27.097Z,13.00
2019-03-19T08:44:54.960Z,15.60
2019-03-19T08:47:22.718Z,12.80
2019-03-19T08:49:50.591Z,18.00
2019-03-19T08:52:18.350Z,14.57
2019-03-19T08:54:46.129Z,12.70
2019-03-19T08:57:13.884Z,12.27
2019-03-19T08:59:41.840Z,12.83
2019-03-19T09:02:09.548Z,14.73
2019-03-19T09:04:37.423Z,13.00
2019-03-19T09:07:05.257Z,11.93
2019-03-19T09:09:33.156Z,12.03
2019-03-19T09:12:00.916Z,13.13
2019-03-19T09:14:28.659Z,12.83
2019-03-19T09:16:56.421Z,14.00
2019-03-19T09:19:24.126Z,10.17
2019-03-19T09:21:51.856Z,11.97
2019-03-19T09:24:19.623Z,14.60
2019-03-19T09:26:47.379Z,14.20
2019-03-19T09:29:17.184Z,11.43
2019-03-19T09:31:44.779Z,20.00
2019-03-19T09:34:12.636Z,12.93
2019-03-19T09:36:40.505Z,11.90
2019-03-19T09:39:08.393Z,16.33
2019-03-19T09:41:36.183Z,12.87
2019-03-19T09:44:04.048Z,12.83
2019-03-19T09:46:31.891Z,13.47
2019-03-19T09:48:59.671Z,13.20
2019-03-19T09:51:27.442Z,17.80
2019-03-19T09:53:55.155Z,15.30
2019-03-19T09:56:22.953Z,15.37
2019-03-19T09:58:51.024Z,16.70
2019-03-19T10:01:18.732Z,14.40
2019-03-19T10:03:46.430Z,14.57
2019-03-19T10:06:14.645Z,12.50
2019-03-19T10:08:42.488Z,13.80
2019-03-19T10:11:10.287Z,11.50
2019-03-19T10:13:38.012Z,11.27
2019-03-19T10:16:07.794Z,15.33
2019-03-19T10:18:35.956Z,14.23
2019-03-19T10:21:03.683Z,12.27
2019-03-19T10:23:33.007Z,14.27
2019-03-19T10:26:00.753Z,15.17
2019-03-19T10:28:28.519Z,20.50
2019-03-19T10:30:56.313Z,11.67
2019-03-19T10:33:24.162Z,9.33
2019-03-19T10:35:55.639Z,9.47
2019-03-19T10:38:34.832Z,10.82
2019-03-19T10:41:02.517Z,9.73
2019-03-19T10:43:30.268Z,16.17
2019-03-19T10:45:58.043Z,12.37
2019-03-19T10:48:25.832Z,11.27
2019-03-19T10:50:53.667Z,11.17
2019-03-19T10:53:21.434Z,10.47
2019-03-19T10:55:49.337Z,15.63
2019-03-19T10:58:17.165Z,12.13
2019-03-19T11:00:45.292Z,17.27
2019-03-19T11:03:15.292Z,12.03
2019-03-19T11:05:43.131Z,12.20
2019-03-19T11:08:10.927Z,10.93
2019-03-19T11:10:38.523Z,9.20
2019-03-19T11:13:05.955Z,15.75
2019-03-19T11:15:33.502Z,10.63
2019-03-19T11:18:01.042Z,11.00
2019-03-19T11:20:28.618Z,9.53
2019-03-19T11:22:56.047Z,14.38
2019-03-19T11:25:23.760Z,10.63
2019-03-19T11:27:51.598Z,11.57
2019-03-19T11:30:19.339Z,10.50
2019-03-19T11:32:47.057Z,9.97
2019-03-19T11:35:14.894Z,8.60
2019-03-19T11:37:42.654Z,10.23
2019-03-19T11:40:10.426Z,10.13
2019-03-19T11:42:38.175Z,14.07
2019-03-19T11:45:05.980Z,7.80
2019-03-19T11:47:33.752Z,12.97
2019-03-19T11:50:01.508Z,8.27
2019-03-19T11:52:29.259Z,9.53
2019-03-19T11:54:57.128Z,9.43
2019-03-19T11:57:24.587Z,9.75
2019-03-19T11:59:52.000Z,11.60
2019-03-19T12:02:25.890Z,13.22
2019-03-19T12:04:48.904Z,8.87
2019-03-19T12:07:16.664Z,13.10
2019-03-19T12:09:44.327Z,11.87
2019-03-19T12:12:12.120Z,10.47
2019-03-19T12:14:39.797Z,14.03
2019-03-19T12:17:07.341Z,13.95
2019-03-19T12:19:34.768Z,8.05
2019-03-19T12:22:02.274Z,8.20
2019-03-19T12:24:29.808Z,9.78
2019-03-19T12:26:57.520Z,6.80
2019-03-19T12:29:25.353Z,11.97
2019-03-19T12:31:53.056Z,6.73
2019-03-19T12:34:20.902Z,11.40
2019-03-19T12:36:48.869Z,10.57
2019-03-19T12:39:16.722Z,7.47
2019-03-19T12:41:44.704Z,8.57
2019-03-19T12:44:12.420Z,9.80
2019-03-19T12:46:40.164Z,8.37
2019-03-19T12:49:07.907Z,9.83
2019-03-19T12:51:35.871Z,8.97
2019-03-19T12:54:07.034Z,9.27
2019-03-19T12:56:34.754Z,10.50
2019-03-19T12:59:02.480Z,8.10
2019-03-19T13:01:30.364Z,11.27
2019-03-19T13:03:58.165Z,9.83
2019-03-19T13:06:25.957Z,12.73
2019-03-19T13:08:53.513Z,8.13
2019-03-19T13:11:20.943Z,7.62
2019-03-19T13:13:48.757Z,7.63
2019-03-19T13:16:16.305Z,9.35
2019-03-19T13:18:43.937Z,8.03
2019-03-19T13:21:11.412Z,6.33
2019-03-19T13:23:38.888Z,8.43
2019-03-19T13:26:06.444Z,7.35
2019-03-19T13:28:33.900Z,9.85
2019-03-19T13:31:01.469Z,15.25
2019-03-19T13:33:29.028Z,6.85
2019-03-19T13:35:56.564Z,6.58
2019-03-19T13:38:24.342Z,8.23
2019-03-19T13:40:51.762Z,7.08
2019-03-19T13:43:19.260Z,14.45
2019-03-19T13:45:46.717Z,9.30
2019-03-19T13:48:14.141Z,10.15
2019-03-19T13:50:41.548Z,11.88
2019-03-19T13:53:09.134Z,10.53
2019-03-19T13:55:36.565Z,10.15
2019-03-19T13:58:03.994Z,8.78
2019-03-19T14:00:31.437Z,10.35
2019-03-19T14:02:59.351Z,13.20
2019-03-19T14:05:27.435Z,9.20
2019-03-19T14:07:55.294Z,9.77
2019-03-19T14:10:23.056Z,10.03
2019-03-19T14:12:50.820Z,11.83
2019-03-19T14:15:18.622Z,15.07
2019-03-19T14:17:46.324Z,11.33
2019-03-19T14:20:14.129Z,10.23
2019-03-19T14:22:41.910Z,8.43
2019-03-19T14:25:09.678Z,13.07
2019-03-19T14:27:37.427Z,11.20
2019-03-19T14:30:05.183Z,7.97
2019-03-19T14:32:33.068Z,11.53
2019-03-19T14:35:00.800Z,9.67
2019-03-19T14:37:28.626Z,9.47
2019-03-19T14:39:56.451Z,7.37
2019-03-19T14:42:24.313Z,12.30
2019-03-19T14:44:52.090Z,11.03
2019-03-19T14:47:19.811Z,10.97
2019-03-19T14:49:49.831Z,7.77
2019-03-19T14:52:17.144Z,8.73
2019-03-19T14:54:44.894Z,9.13
2019-03-19T14:57:12.659Z,9.10
2019-03-19T14:59:40.439Z,13.83
2019-03-19T15:02:08.206Z,9.60
2019-03-19T15:04:35.969Z,8.73
2019-03-19T15:07:03.735Z,11.17
2019-03-19T15:09:31.517Z,9.83
2019-03-19T15:11:59.249Z,9.40
2019-03-19T15:14:26.964Z,14.00
2019-03-19T15:17:04.439Z,13.83
2019-03-19T15:19:24.317Z,10.43
2019-03-19T15:21:52.084Z,10.03
2019-03-19T15:24:19.802Z,9.73
2019-03-19T15:26:47.530Z,14.27
2019-03-19T15:29:15.273Z,11.07
2019-03-19T15:31:43.020Z,9.87
2019-03-19T15:34:10.789Z,14.07
2019-03-19T15:36:40.976Z,14.20
2019-03-19T15:39:08.694Z,15.30
2019-03-19T15:41:36.459Z,11.67
2019-03-19T15:44:04.218Z,12.57
2019-03-19T15:46:31.954Z,14.90
2019-03-19T15:49:00.508Z,11.97
2019-03-19T15:51:28.474Z,10.93
2019-03-19T15:53:56.164Z,11.70
2019-03-19T15:56:23.995Z,16.90
2019-03-19T15:58:51.705Z,16.03
2019-03-19T16:01:19.455Z,14.93
2019-03-19T16:03:47.214Z,26.73
2019-03-19T16:06:15.036Z,12.17
2019-03-19T16:08:42.747Z,15.30
2019-03-19T16:11:10.468Z,14.07
2019-03-19T16:13:38.253Z,14.10
2019-03-19T16:16:05.963Z,12.63
2019-03-19T16:18:33.800Z,12.70
2019-03-19T16:21:01.549Z,13.47
2019-03-19T16:23:29.306Z,13.60
2019-03-19T16:25:57.080Z,16.90
2019-03-19T16:28:24.856Z,14.30
2019-03-19T16:30:52.592Z,18.53
2019-03-19T16:33:20.298Z,11.83
2019-03-19T16:35:48.046Z,15.27
2019-03-19T16:38:15.843Z,14.27
2019-03-19T16:40:43.525Z,14.33
2019-03-19T16:43:11.261Z,16.97
2019-03-19T16:45:38.962Z,15.87
2019-03-19T16:48:06.771Z,15.13
2019-03-19T16:50:34.595Z,13.30
2019-03-19T16:53:02.390Z,9.33
2019-03-19T16:55:30.176Z,13.00
2019-03-19T16:57:58.047Z,13.00
2019-03-19T17:00:25.827Z,11.07
2019-03-19T17:02:53.661Z,13.73
2019-03-19T17:05:21.358Z,13.30
2019-03-19T17:07:49.200Z,10.83
2019-03-19T17:10:16.964Z,11.57
2019-03-19T17:12:44.747Z,16.93
2019-03-19T17:15:12.491Z,19.53
2019-03-19T17:17:40.275Z,17.50
2019-03-19T17:20:08.132Z,23.40
2019-03-19T17:22:35.882Z,16.20
2019-03-19T17:25:03.675Z,20.23
2019-03-19T17:27:31.089Z,11.97
2019-03-19T17:29:58.593Z,14.13
2019-03-19T17:32:26.029Z,16.30
2019-03-19T17:34:53.824Z,18.57
2019-03-19T17:37:21.694Z,18.53
2019-03-19T17:39:49.551Z,18.20
2019-03-19T17:42:17.293Z,17.03
2019-03-19T17:44:45.039Z,17.00
2019-03-19T17:47:12.839Z,19.27
2019-03-19T17:49:40.628Z,36.70
2019-03-19T17:52:08.364Z,15.47
2019-03-19T17:54:36.181Z,18.23
2019-03-19T17:57:04.128Z,20.30
2019-03-19T17:59:31.844Z,22.07
2019-03-19T18:01:59.565Z,25.03
2019-03-19T18:04:27.287Z,30.13
2019-03-19T18:06:55.017Z,29.70
2019-03-19T18:09:22.442Z,39.95
2019-03-19T18:11:49.868Z,29.00
2019-03-19T18:14:17.343Z,32.00
2019-03-19T18:16:45.135Z,34.23
2019-03-19T18:19:12.948Z,34.87
2019-03-19T18:21:40.663Z,32.50
2019-03-19T18:24:08.443Z,31.97
2019-03-19T18:26:36.301Z,34.40
2019-03-19T18:29:04.155Z,22.47
2019-03-19T18:31:32.035Z,19.63
2019-03-19T18:34:09.979Z,30.43
2019-03-19T18:36:29.340Z,24.93
2019-03-19T18:38:57.056Z,27.27
2019-03-19T18:41:25.889Z,23.47
2019-03-19T18:43:53.730Z,26.70
2019-03-19T18:46:21.464Z,23.07
2019-03-19T18:48:49.260Z,22.77
2019-03-19T18:51:17.134Z,21.60
2019-03-19T18:53:44.832Z,21.83
2019-03-19T18:56:12.663Z,18.63
2019-03-19T18:58:40.440Z,16.03
2019-03-19T19:01:08.355Z,18.93
2019-03-19T19:03:36.187Z,19.23
2019-03-19T19:06:04.026Z,20.87
2019-03-19T19:08:31.797Z,20.53
2019-03-19T19:10:59.591Z,22.07
2019-03-19T19:13:27.308Z,24.50
2019-03-19T19:15:55.104Z,21.27
2019-03-19T19:18:22.865Z,21.40
2019-03-19T19:20:50.633Z,21.73
2019-03-19T19:23:18.380Z,21.07
2019-03-19T19:25:46.095Z,25.30
2019-03-19T19:28:13.986Z,27.67
2019-03-19T19:30:41.733Z,29.10
2019-03-19T19:33:09.556Z,25.83
2019-03-19T19:35:37.266Z,26.13
2019-03-19T19:38:05.105Z,23.57
2019-03-19T19:40:32.820Z,19.93
2019-03-19T19:43:00.546Z,25.17
2019-03-19T19:45:28.297Z,29.13
2019-03-19T19:47:56.069Z,22.87
2019-03-19T19:50:23.830Z,22.27
2019-03-19T19:52:51.557Z,26.10
2019-03-19T19:55:19.274Z,23.63
2019-03-19T19:57:47.246Z,25.07
2019-03-19T20:00:14.995Z,20.03
2019-03-19T20:02:42.707Z,25.70
2019-03-19T20:05:10.540Z,25.23
2019-03-19T20:07:38.268Z,27.93
2019-03-19T20:10:05.974Z,28.73
2019-03-19T20:12:33.883Z,29.07
2019-03-19T20:15:01.604Z,25.63
2019-03-19T20:17:29.386Z,35.97
2019-03-19T20:19:57.245Z,28.30
2019-03-19T20:22:24.973Z,28.57
2019-03-19T20:24:52.713Z,26.73
2019-03-19T20:27:20.440Z,27.13
2019-03-19T20:29:48.207Z,21.73
2019-03-19T20:32:15.956Z,22.33
2019-03-19T20:34:43.702Z,25.13
2019-03-19T20:37:11.491Z,25.90
2019-03-19T20:39:39.316Z,28.40
2019-03-19T20:42:07.025Z,25.97
2019-03-19T20:44:34.771Z,29.90
2019-03-19T20:47:02.476Z,28.50
2019-03-19T20:49:30.224Z,26.60
2019-03-19T20:51:57.987Z,28.20
2019-03-19T20:54:25.794Z,25.13
2019-03-19T20:56:53.624Z,30.50
2019-03-19T20:59:21.380Z,39.47
2019-03-19T21:01:49.125Z,33.77
2019-03-19T21:04:16.915Z,34.63
2019-03-19T21:06:44.690Z,31.33
2019-03-19T21:09:12.407Z,38.27
2019-03-19T21:11:40.134Z,37.70
2019-03-19T21:14:07.852Z,34.13
2019-03-19T21:16:35.579Z,37.67
2019-03-19T21:19:03.310Z,33.83
2019-03-19T21:21:31.096Z,39.90
2019-03-19T21:23:58.810Z,40.30
2019-03-19T21:26:26.644Z,34.47
2019-03-19T21:28:54.392Z,32.30
2019-03-19T21:31:22.105Z,37.17
2019-03-19T21:33:51.343Z,30.93
2019-03-19T21:36:19.354Z,23.17
2019-03-19T21:38:47.077Z,27.90
2019-03-19T21:41:14.786Z,26.80
2019-03-19T21:43:42.735Z,24.03
2019-03-19T21:46:10.600Z,23.07
2019-03-19T21:48:38.389Z,22.47
2019-03-19T21:51:06.124Z,21.97
2019-03-19T21:53:34.030Z,21.40
2019-03-19T21:56:01.853Z,28.40
2019-03-19T21:58:29.618Z,22.33
2019-03-19T22:00:57.403Z,22.07
2019-03-19T22:03:25.129Z,19.60
2019-03-19T22:05:52.916Z,34.83
2019-03-19T22:08:20.685Z,19.37
2019-03-19T22:10:48.414Z,18.53
2019-03-19T22:13:16.221Z,17.33
2019-03-19T22:15:43.981Z,18.20
2019-03-19T22:18:12.374Z,23.20
2019-03-19T22:20:40.145Z,17.93
2019-03-19T22:23:07.874Z,18.73
2019-03-19T22:25:35.657Z,17.27
2019-03-19T22:28:06.205Z,20.37
2019-03-19T22:30:33.923Z,18.57
2019-03-19T22:33:01.744Z,18.83
2019-03-19T22:35:29.606Z,17.60
2019-03-19T22:37:57.372Z,18.57
2019-03-19T22:40:25.098Z,17.30
2019-03-19T22:42:52.932Z,15.30
2019-03-19T22:45:20.776Z,18.40
2019-03-19T22:47:48.540Z,23.03
2019-03-19T22:50:16.319Z,17.90
2019-03-19T22:52:44.478Z,15.17
2019-03-19T22:55:12.266Z,17.07
2019-03-19T22:57:40.013Z,17.27
2019-03-19T23:00:08.018Z,16.53
2019-03-19T23:02:35.739Z,19.50
2019-03-19T23:05:03.518Z,17.23
2019-03-19T23:07:31.295Z,16.17
2019-03-19T23:09:59.903Z,15.10
2019-03-19T23:12:27.737Z,16.60
2019-03-19T23:14:55.536Z,14.70
2019-03-19T23:17:23.407Z,15.97
2019-03-19T23:19:51.280Z,14.03
2019-03-19T23:22:22.111Z,14.87
2019-03-19T23:24:53.381Z,13.00
2019-03-19T23:27:22.364Z,14.90
2019-03-19T23:29:51.749Z,14.83
2019-03-19T23:32:24.762Z,15.73
2019-03-19T23:34:55.630Z,16.67
2019-03-19T23:37:24.177Z,14.33
2019-03-19T23:39:51.956Z,14.60
2019-03-19T23:42:19.586Z,15.90
2019-03-19T23:44:47.149Z,16.48
2019-03-19T23:47:14.606Z,14.87
2019-03-19T23:49:42.338Z,17.00
2019-03-19T23:52:10.090Z,18.30
2019-03-19T23:54:37.835Z,18.13
2019-03-19T23:57:05.658Z,14.67
2019-03-19T23:59:33.537Z,18.50
